createdAt,value
2018-09-05T00:02:13.788Z,19.20
2018-09-05T00:04:42.504Z,18.53
2018-09-05T00:07:11.202Z,18.40
2018-09-05T00:09:40.515Z,18.80
2018-09-05T00:12:09.392Z,18.73
2018-09-05T00:14:38.094Z,18.60
2018-09-05T00:17:07.128Z,18.63
2018-09-05T00:19:35.823Z,18.97
2018-09-05T00:22:04.620Z,19.43
2018-09-05T00:24:33.547Z,18.30
2018-09-05T00:27:02.169Z,17.67
2018-09-05T00:29:31.209Z,16.87
2018-09-05T00:32:00.224Z,16.47
2018-09-05T00:34:28.812Z,17.43
2018-09-05T00:36:57.636Z,16.03
2018-09-05T00:39:27.112Z,16.33
2018-09-05T00:41:55.865Z,16.93
2018-09-05T00:44:25.165Z,16.93
2018-09-05T00:46:53.975Z,16.57
2018-09-05T00:49:22.711Z,18.10
2018-09-05T00:51:51.419Z,17.40
2018-09-05T00:54:20.517Z,17.87
2018-09-05T00:56:49.325Z,18.53
2018-09-05T00:59:18.040Z,17.60
2018-09-05T01:01:46.819Z,17.60
2018-09-05T01:04:15.534Z,18.17
2018-09-05T01:06:44.263Z,17.60
2018-09-05T01:09:13.835Z,18.37
2018-09-05T01:11:42.801Z,18.07
2018-09-05T01:14:11.608Z,18.87
2018-09-05T01:16:40.464Z,18.10
2018-09-05T01:19:09.324Z,19.60
2018-09-05T01:21:38.121Z,18.37
2018-09-05T01:24:07.130Z,18.27
2018-09-05T01:26:35.854Z,19.47
2018-09-05T01:29:04.594Z,20.23
2018-09-05T01:31:34.077Z,20.00
2018-09-05T01:34:02.744Z,21.23
2018-09-05T01:36:32.089Z,19.83
2018-09-05T01:39:00.907Z,19.43
2018-09-05T01:41:29.752Z,20.07
2018-09-05T01:43:58.328Z,19.57
2018-09-05T01:46:27.020Z,19.70
2018-09-05T01:48:57.329Z,19.90
2018-09-05T01:51:26.104Z,19.63
2018-09-05T01:53:54.722Z,19.60
2018-09-05T01:56:23.453Z,20.93
2018-09-05T01:58:52.049Z,20.47
2018-09-05T02:01:20.623Z,20.07
2018-09-05T02:03:49.207Z,20.70
2018-09-05T02:06:18.732Z,21.53
2018-09-05T02:08:47.322Z,19.93
2018-09-05T02:11:18.255Z,24.12
2018-09-05T02:13:48.045Z,22.20
2018-09-05T02:16:16.836Z,23.37
2018-09-05T02:18:45.444Z,23.90
2018-09-05T02:21:14.032Z,22.13
2018-09-05T02:23:42.716Z,20.90
2018-09-05T02:26:11.302Z,20.20
2018-09-05T02:28:39.920Z,20.83
2018-09-05T02:31:09.100Z,21.53
2018-09-05T02:33:37.783Z,22.30
2018-09-05T02:36:06.569Z,23.10
2018-09-05T02:38:35.591Z,22.03
2018-09-05T02:41:04.321Z,23.07
2018-09-05T02:43:38.288Z,22.17
2018-09-05T02:46:06.905Z,21.70
2018-09-05T02:48:36.379Z,21.23
2018-09-05T02:51:05.383Z,22.17
2018-09-05T02:53:34.018Z,22.83
2018-09-05T02:56:04.479Z,23.97
2018-09-05T02:58:34.710Z,24.03
2018-09-05T03:01:03.426Z,25.53
2018-09-05T03:03:32.216Z,23.83
2018-09-05T03:06:00.964Z,23.43
2018-09-05T03:08:29.584Z,24.20
2018-09-05T03:10:58.481Z,25.27
2018-09-05T03:13:27.153Z,25.47
2018-09-05T03:15:55.824Z,24.40
2018-09-05T03:18:24.537Z,23.80
2018-09-05T03:20:53.049Z,23.00
2018-09-05T03:23:21.850Z,24.30
2018-09-05T03:25:50.525Z,24.50
2018-09-05T03:28:19.179Z,24.43
2018-09-05T03:30:47.966Z,23.80
2018-09-05T03:33:16.613Z,24.80
2018-09-05T03:35:45.614Z,24.13
2018-09-05T03:38:14.179Z,24.53
2018-09-05T03:40:42.834Z,25.80
2018-09-05T03:43:11.609Z,24.27
2018-09-05T03:45:40.288Z,25.47
2018-09-05T03:48:09.064Z,24.00
2018-09-05T03:50:37.635Z,24.73
2018-09-05T03:53:07.343Z,25.00
2018-09-05T03:55:36.271Z,25.13
2018-09-05T03:58:05.044Z,24.67
2018-09-05T04:00:35.493Z,24.63
2018-09-05T04:03:05.984Z,24.43
2018-09-05T04:05:34.632Z,24.67
2018-09-05T04:08:03.215Z,25.07
2018-09-05T04:10:32.576Z,25.50
2018-09-05T04:13:01.392Z,24.33
2018-09-05T04:15:30.069Z,26.43
2018-09-05T04:17:58.652Z,26.57
2018-09-05T04:20:27.223Z,25.33
2018-09-05T04:22:55.912Z,24.57
2018-09-05T04:25:24.622Z,24.67
2018-09-05T04:27:54.004Z,24.53
2018-09-05T04:30:22.705Z,25.23
2018-09-05T04:32:51.388Z,24.57
2018-09-05T04:35:20.204Z,25.77
2018-09-05T04:37:48.884Z,27.03
2018-09-05T04:40:17.565Z,26.03
2018-09-05T04:42:46.371Z,24.63
2018-09-05T04:45:15.303Z,24.70
2018-09-05T04:47:43.963Z,23.47
2018-09-05T04:50:12.780Z,24.97
2018-09-05T04:52:41.495Z,32.70
2018-09-05T04:55:10.126Z,32.17
2018-09-05T04:57:38.808Z,31.37
2018-09-05T05:00:08.242Z,31.47
2018-09-05T05:02:36.922Z,32.30
2018-09-05T05:05:05.720Z,34.50
2018-09-05T05:07:34.355Z,31.70
2018-09-05T05:10:03.094Z,32.90
2018-09-05T05:12:32.477Z,32.63
2018-09-05T05:15:01.069Z,31.97
2018-09-05T05:17:30.029Z,28.70
2018-09-05T05:19:58.595Z,25.77
2018-09-05T05:22:27.187Z,24.17
2018-09-05T05:24:56.649Z,23.70
2018-09-05T05:27:25.284Z,23.40
2018-09-05T05:29:53.824Z,23.67
2018-09-05T05:32:22.667Z,25.37
2018-09-05T05:34:51.409Z,29.73
2018-09-05T05:37:21.124Z,31.87
2018-09-05T05:39:50.051Z,28.40
2018-09-05T05:42:18.721Z,25.53
2018-09-05T05:44:47.315Z,22.13
2018-09-05T05:47:16.307Z,23.60
2018-09-05T05:49:44.883Z,23.37
2018-09-05T05:52:13.516Z,24.60
2018-09-05T05:54:42.305Z,24.00
2018-09-05T05:57:11.049Z,24.43
2018-09-05T05:59:39.787Z,24.83
2018-09-05T06:02:08.561Z,24.33
2018-09-05T06:04:38.172Z,24.93
2018-09-05T06:07:06.860Z,23.93
2018-09-05T06:09:35.786Z,23.30
2018-09-05T06:12:04.713Z,22.53
2018-09-05T06:14:34.283Z,21.83
2018-09-05T06:17:02.953Z,23.23
2018-09-05T06:19:31.604Z,21.43
2018-09-05T06:22:00.505Z,22.10
2018-09-05T06:24:29.368Z,21.23
2018-09-05T06:26:58.003Z,22.47
2018-09-05T06:29:26.988Z,21.47
2018-09-05T06:31:55.678Z,21.37
2018-09-05T06:34:24.517Z,20.63
2018-09-05T06:36:53.314Z,21.27
2018-09-05T06:39:21.972Z,21.83
2018-09-05T06:41:51.607Z,20.60
2018-09-05T06:44:20.367Z,20.30
2018-09-05T06:46:49.194Z,19.30
2018-09-05T06:49:18.549Z,18.67
2018-09-05T06:51:47.395Z,19.60
2018-09-05T06:54:16.017Z,19.43
2018-09-05T06:56:46.316Z,19.83
2018-09-05T06:59:16.122Z,18.37
2018-09-05T07:01:45.073Z,17.80
2018-09-05T07:04:13.821Z,20.40
2018-09-05T07:06:42.473Z,35.57
2018-09-05T07:09:12.488Z,19.83
2018-09-05T07:11:41.730Z,18.50
2018-09-05T07:14:10.475Z,18.30
2018-09-05T07:16:39.074Z,19.57
2018-09-05T07:19:09.369Z,18.30
2018-09-05T07:21:38.505Z,17.53
2018-09-05T07:24:07.532Z,18.80
2018-09-05T07:26:36.661Z,17.77
2018-09-05T07:29:05.444Z,18.90
2018-09-05T07:31:34.087Z,18.77
2018-09-05T07:34:02.739Z,16.57
2018-09-05T07:36:31.547Z,16.33
2018-09-05T07:39:00.389Z,16.77
2018-09-05T07:41:29.059Z,17.57
2018-09-05T07:43:58.316Z,16.37
2018-09-05T07:46:27.518Z,16.07
2018-09-05T07:48:57.986Z,16.10
2018-09-05T07:51:29.052Z,15.80
2018-09-05T07:54:03.289Z,15.83
2018-09-05T07:56:36.745Z,16.10
2018-09-05T07:59:06.051Z,18.03
2018-09-05T08:01:37.252Z,15.67
2018-09-05T08:04:06.385Z,14.03
2018-09-05T08:06:35.257Z,14.43
2018-09-05T08:09:05.295Z,15.37
2018-09-05T08:11:34.080Z,13.13
2018-09-05T08:14:03.791Z,22.87
2018-09-05T08:16:32.632Z,15.80
2018-09-05T08:19:01.819Z,12.97
2018-09-05T08:21:30.725Z,13.90
2018-09-05T08:23:59.498Z,12.20
2018-09-05T08:26:28.201Z,12.13
2018-09-05T08:28:57.067Z,10.87
2018-09-05T08:31:25.722Z,10.60
2018-09-05T08:33:54.384Z,13.00
2018-09-05T08:36:23.301Z,11.93
2018-09-05T08:38:51.982Z,10.00
2018-09-05T08:41:20.950Z,14.17
2018-09-05T08:43:49.728Z,16.07
2018-09-05T08:46:18.527Z,11.57
2018-09-05T08:48:47.101Z,10.07
2018-09-05T08:51:16.020Z,10.00
2018-09-05T08:53:45.048Z,9.60
2018-09-05T08:56:14.932Z,9.90
2018-09-05T08:58:44.351Z,10.17
2018-09-05T09:01:13.076Z,10.20
2018-09-05T09:03:42.115Z,10.07
2018-09-05T09:06:10.751Z,10.37
2018-09-05T09:08:39.529Z,9.10
2018-09-05T09:11:08.280Z,8.17
2018-09-05T09:13:36.848Z,9.07
2018-09-05T09:16:06.719Z,9.00
2018-09-05T09:18:35.381Z,7.77
2018-09-05T09:21:04.588Z,9.10
2018-09-05T09:23:33.288Z,9.20
2018-09-05T09:26:02.213Z,8.50
2018-09-05T09:28:31.013Z,8.43
2018-09-05T09:30:59.567Z,8.07
2018-09-05T09:33:28.573Z,8.20
2018-09-05T09:35:57.261Z,7.90
2018-09-05T09:38:26.125Z,7.87
2018-09-05T09:40:54.960Z,8.03
2018-09-05T09:43:23.558Z,7.87
2018-09-05T09:45:52.235Z,8.03
2018-09-05T09:48:21.031Z,7.37
2018-09-05T09:50:49.611Z,7.63
2018-09-05T09:53:19.159Z,7.97
2018-09-05T09:55:47.800Z,7.53
2018-09-05T09:58:17.548Z,8.20
2018-09-05T10:00:51.499Z,7.70
2018-09-05T10:03:25.480Z,7.53
2018-09-05T10:05:59.435Z,7.67
2018-09-05T10:08:37.101Z,7.63
2018-09-05T10:11:10.838Z,7.63
2018-09-05T10:13:44.659Z,8.13
2018-09-05T10:16:18.881Z,7.80
2018-09-05T10:18:50.012Z,8.60
2018-09-05T10:21:18.829Z,7.37
2018-09-05T10:23:47.467Z,8.60
2018-09-05T10:26:16.192Z,8.37
2018-09-05T10:28:44.813Z,8.37
2018-09-05T10:31:13.573Z,8.03
2018-09-05T10:33:42.231Z,7.90
2018-09-05T10:36:10.835Z,8.20
2018-09-05T10:43:53.445Z,8.77
2018-09-05T10:46:22.064Z,8.13
2018-09-05T10:48:50.869Z,7.70
2018-09-05T10:51:25.720Z,7.30
2018-09-05T10:53:54.388Z,8.63
2018-09-05T10:56:22.991Z,8.63
2018-09-05T10:58:51.776Z,8.43
2018-09-05T11:01:21.038Z,7.60
2018-09-05T11:03:49.762Z,8.00
2018-09-05T11:06:18.430Z,9.23
2018-09-05T11:08:47.152Z,8.33
2018-09-05T11:11:15.904Z,8.00
2018-09-05T11:13:44.902Z,8.10
2018-09-05T11:16:13.508Z,8.70
2018-09-05T11:18:42.256Z,9.57
2018-09-05T11:21:11.280Z,9.57
2018-09-05T11:23:39.939Z,9.50
2018-09-05T11:26:08.919Z,9.37
2018-09-05T11:28:38.237Z,10.03
2018-09-05T11:31:07.461Z,9.07
2018-09-05T11:33:36.564Z,8.97
2018-09-05T11:36:05.833Z,8.70
2018-09-05T11:38:34.520Z,8.20
2018-09-05T11:41:03.296Z,8.13
2018-09-05T11:43:32.102Z,8.63
2018-09-05T11:46:00.940Z,7.73
2018-09-05T11:48:29.793Z,7.40
2018-09-05T11:51:03.142Z,7.00
2018-09-05T11:53:32.860Z,7.73
2018-09-05T11:56:01.534Z,8.83
2018-09-05T11:58:30.633Z,9.27
2018-09-05T12:01:00.172Z,8.20
2018-09-05T12:03:29.036Z,7.83
2018-09-05T12:05:59.466Z,7.33
2018-09-05T12:08:28.195Z,7.47
2018-09-05T12:10:56.945Z,7.13
2018-09-05T12:13:25.589Z,7.07
2018-09-05T12:15:54.386Z,7.10
2018-09-05T12:18:24.776Z,7.93
2018-09-05T12:20:53.430Z,7.20
2018-09-05T12:23:22.678Z,7.67
2018-09-05T12:25:51.380Z,7.70
2018-09-05T12:28:20.136Z,6.57
2018-09-05T12:30:48.839Z,7.30
2018-09-05T12:33:17.455Z,7.23
2018-09-05T12:35:46.312Z,6.67
2018-09-05T12:38:15.133Z,6.73
2018-09-05T12:40:43.888Z,7.07
2018-09-05T12:43:12.794Z,6.57
2018-09-05T12:45:41.388Z,6.12
2018-09-05T12:48:10.052Z,6.90
2018-09-05T12:50:38.885Z,6.67
2018-09-05T12:53:09.131Z,6.83
2018-09-05T12:55:38.090Z,6.45
2018-09-05T12:58:06.962Z,6.47
2018-09-05T13:00:35.685Z,7.10
2018-09-05T13:03:05.311Z,6.73
2018-09-05T13:05:34.106Z,7.73
2018-09-05T13:08:02.721Z,7.10
2018-09-05T13:10:32.961Z,7.77
2018-09-05T13:13:01.735Z,8.43
2018-09-05T13:15:30.574Z,7.00
2018-09-05T13:17:59.218Z,6.87
2018-09-05T13:20:28.041Z,6.37
2018-09-05T13:22:57.009Z,6.37
2018-09-05T13:25:25.685Z,6.13
2018-09-05T13:27:54.425Z,6.40
2018-09-05T13:30:23.133Z,5.67
2018-09-05T13:32:52.456Z,5.80
2018-09-05T13:35:21.260Z,6.58
2018-09-05T13:37:49.972Z,6.45
2018-09-05T13:40:19.741Z,9.73
2018-09-05T13:42:49.164Z,5.70
2018-09-05T13:45:17.971Z,6.60
2018-09-05T13:47:46.982Z,6.80
2018-09-05T13:50:15.621Z,6.20
2018-09-05T13:52:44.382Z,6.65
2018-09-05T13:55:13.204Z,7.72
2018-09-05T13:57:41.805Z,6.83
2018-09-05T14:00:15.191Z,6.70
2018-09-05T14:02:45.102Z,6.77
2018-09-05T14:05:14.622Z,7.47
2018-09-05T14:07:44.200Z,7.87
2018-09-05T14:10:14.866Z,8.00
2018-09-05T14:12:43.910Z,7.47
2018-09-05T14:15:12.915Z,7.80
2018-09-05T14:17:41.765Z,8.70
2018-09-05T14:20:12.089Z,8.83
2018-09-05T14:22:41.578Z,8.80
2018-09-05T14:25:10.261Z,8.40
2018-09-05T14:27:38.992Z,8.80
2018-09-05T14:30:07.721Z,8.93
2018-09-05T14:32:36.601Z,8.77
2018-09-05T14:35:05.621Z,10.60
2018-09-05T14:37:34.689Z,8.93
2018-09-05T14:40:03.309Z,8.57
2018-09-05T14:42:32.093Z,9.53
2018-09-05T14:45:01.232Z,8.83
2018-09-05T14:47:30.016Z,9.30
2018-09-05T14:50:00.677Z,8.70
2018-09-05T14:52:30.334Z,8.33
2018-09-05T14:55:00.185Z,8.13
2018-09-05T14:57:29.048Z,8.50
2018-09-05T15:00:00.142Z,8.43
2018-09-05T15:02:30.152Z,8.03
2018-09-05T15:04:59.452Z,7.90
2018-09-05T15:07:28.280Z,9.30
2018-09-05T15:09:57.992Z,7.93
2018-09-05T15:12:26.873Z,7.20
2018-09-05T15:14:55.710Z,7.17
2018-09-05T15:17:24.484Z,7.77
2018-09-05T15:19:53.332Z,7.20
2018-09-05T15:22:24.259Z,7.93
2018-09-05T15:24:53.152Z,7.60
2018-09-05T15:27:21.911Z,7.03
2018-09-05T15:29:50.629Z,7.57
2018-09-05T15:32:19.367Z,7.67
2018-09-05T15:34:48.000Z,8.37
2018-09-05T15:37:16.848Z,7.20
2018-09-05T15:39:49.132Z,7.13
2018-09-05T15:42:18.019Z,7.57
2018-09-05T15:44:46.882Z,7.07
2018-09-05T15:47:15.783Z,7.90
2018-09-05T15:49:44.450Z,6.80
2018-09-05T15:52:13.223Z,6.67
2018-09-05T15:54:42.787Z,6.67
2018-09-05T15:57:11.459Z,6.70
2018-09-05T15:59:40.198Z,6.70
2018-09-05T16:02:10.924Z,7.00
2018-09-05T16:04:40.797Z,7.23
2018-09-05T16:07:10.371Z,6.73
2018-09-05T16:09:39.506Z,6.67
2018-09-05T16:12:08.393Z,6.73
2018-09-05T16:14:37.039Z,6.50
2018-09-05T16:17:05.702Z,6.87
2018-09-05T16:19:36.658Z,7.60
2018-09-05T16:22:06.792Z,7.50
2018-09-05T16:24:36.124Z,7.20
2018-09-05T16:27:05.186Z,6.60
2018-09-05T16:29:33.929Z,6.67
2018-09-05T16:32:03.250Z,6.17
2018-09-05T16:34:31.947Z,6.53
2018-09-05T16:37:00.757Z,6.33
2018-09-05T16:39:29.440Z,7.13
2018-09-05T16:41:58.184Z,7.40
2018-09-05T16:44:27.008Z,7.67
2018-09-05T16:46:55.694Z,7.17
2018-09-05T16:49:24.608Z,7.40
2018-09-05T16:51:53.240Z,7.60
2018-09-05T16:54:22.093Z,7.57
2018-09-05T16:56:51.225Z,7.47
2018-09-05T16:59:19.874Z,7.60
2018-09-05T17:01:49.712Z,7.50
2018-09-05T17:04:18.408Z,7.43
2018-09-05T17:06:47.075Z,7.50
2018-09-05T17:09:17.245Z,7.17
2018-09-05T17:11:46.015Z,7.47
2018-09-05T17:14:14.744Z,7.60
2018-09-05T17:16:43.525Z,7.17
2018-09-05T17:19:12.149Z,7.63
2018-09-05T17:21:40.905Z,7.70
2018-09-05T17:24:09.600Z,7.57
2018-09-05T17:26:38.379Z,7.43
2018-09-05T17:29:07.889Z,7.80
2018-09-05T17:31:36.705Z,7.83
2018-09-05T17:34:07.412Z,7.90
2018-09-05T17:36:36.314Z,9.00
2018-09-05T17:39:07.356Z,8.33
2018-09-05T17:41:36.064Z,7.83
2018-09-05T17:44:05.686Z,8.20
2018-09-05T17:46:34.697Z,8.70
2018-09-05T17:49:04.042Z,8.60
2018-09-05T17:51:33.849Z,8.03
2018-09-05T17:54:02.581Z,7.90
2018-09-05T17:56:31.310Z,8.57
2018-09-05T17:59:00.100Z,8.40
2018-09-05T18:01:28.932Z,9.00
2018-09-05T18:03:57.687Z,8.70
2018-09-05T18:06:26.508Z,8.10
2018-09-05T18:08:55.213Z,8.60
2018-09-05T18:11:24.110Z,8.73
2018-09-05T18:13:52.889Z,8.53
2018-09-05T18:16:22.205Z,9.03
2018-09-05T18:18:51.069Z,9.30
2018-09-05T18:21:19.929Z,12.17
2018-09-05T18:23:48.646Z,12.27
2018-09-05T18:26:17.609Z,12.00
2018-09-05T18:28:46.499Z,20.27
2018-09-05T18:31:15.269Z,16.93
2018-09-05T18:33:44.074Z,12.93
2018-09-05T18:36:12.749Z,10.80
2018-09-05T18:38:41.480Z,11.00
2018-09-05T18:41:11.088Z,11.57
2018-09-05T18:43:39.841Z,11.50
2018-09-05T18:46:09.157Z,10.93
2018-09-05T18:48:37.827Z,10.33
2018-09-05T18:51:06.745Z,10.80
2018-09-05T18:53:35.425Z,11.17
2018-09-05T18:56:05.238Z,11.67
2018-09-05T18:58:34.029Z,11.40
2018-09-05T19:01:02.722Z,11.73
2018-09-05T19:03:32.541Z,11.97
2018-09-05T19:06:02.150Z,12.00
2018-09-05T19:08:32.970Z,13.67
2018-09-05T19:11:02.316Z,15.20
2018-09-05T19:13:30.991Z,20.40
2018-09-05T19:15:59.715Z,25.03
2018-09-05T19:18:28.421Z,24.93
2018-09-05T19:21:00.237Z,24.07
2018-09-05T19:23:29.042Z,23.30
2018-09-05T19:25:58.039Z,19.00
2018-09-05T19:28:27.331Z,18.97
2018-09-05T19:30:56.169Z,19.77
2018-09-05T19:33:24.882Z,20.87
2018-09-05T19:35:53.762Z,23.13
2018-09-05T19:38:22.482Z,22.13
2018-09-05T19:40:51.202Z,21.75
2018-09-05T19:43:20.911Z,21.27
2018-09-05T19:45:49.618Z,19.73
2018-09-05T19:48:18.495Z,20.63
2018-09-05T19:50:47.289Z,20.87
2018-09-05T19:53:16.013Z,21.73
2018-09-05T19:55:44.991Z,23.63
2018-09-05T19:58:13.647Z,24.93
2018-09-05T20:00:42.263Z,21.30
2018-09-05T20:03:11.002Z,21.73
2018-09-05T20:05:40.522Z,20.90
2018-09-05T20:08:09.642Z,21.17
2018-09-05T20:10:39.520Z,22.13
2018-09-05T20:13:10.323Z,19.40
2018-09-05T20:15:39.100Z,20.13
2018-09-05T20:18:08.406Z,18.10
2018-09-05T20:20:37.443Z,17.30
2018-09-05T20:23:06.459Z,17.43
2018-09-05T20:25:35.211Z,16.93
2018-09-05T20:28:04.979Z,16.17
2018-09-05T20:30:33.911Z,15.97
2018-09-05T20:33:02.678Z,15.07
2018-09-05T20:35:31.405Z,16.40
2018-09-05T20:38:00.237Z,17.07
2018-09-05T20:40:28.970Z,17.50
2018-09-05T20:42:57.717Z,15.77
2018-09-05T20:45:28.341Z,17.40
2018-09-05T20:47:57.147Z,17.73
2018-09-05T20:50:27.025Z,17.90
2018-09-05T20:52:55.924Z,18.17
2018-09-05T20:55:24.611Z,17.93
2018-09-05T20:57:53.388Z,16.43
2018-09-05T21:00:22.434Z,17.27
2018-09-05T21:02:51.162Z,16.83
2018-09-05T21:05:19.882Z,16.50
2018-09-05T21:07:48.526Z,15.93
2018-09-05T21:10:17.231Z,15.47
2018-09-05T21:12:47.796Z,15.50
2018-09-05T21:15:19.458Z,16.60
2018-09-05T21:17:48.231Z,14.40
2018-09-05T21:20:16.870Z,15.63
2018-09-05T21:22:46.517Z,15.43
2018-09-05T21:25:18.913Z,15.13
2018-09-05T21:27:48.946Z,16.73
2018-09-05T21:30:17.991Z,16.60
2018-09-05T21:32:48.614Z,15.57
2018-09-05T21:35:17.330Z,15.43
2018-09-05T21:37:46.133Z,13.97
2018-09-05T21:40:14.753Z,13.50
2018-09-05T21:42:43.543Z,14.07
2018-09-05T21:45:12.363Z,13.93
2018-09-05T21:47:41.123Z,13.57
2018-09-05T21:50:10.820Z,13.50
2018-09-05T21:52:39.489Z,13.63
2018-09-05T21:55:08.134Z,14.03
2018-09-05T21:57:36.957Z,13.47
2018-09-05T22:00:07.432Z,13.77
2018-09-05T22:02:36.065Z,14.97
2018-09-05T22:05:06.820Z,14.90
2018-09-05T22:07:35.505Z,14.37
2018-09-05T22:10:04.345Z,15.10
2018-09-05T22:12:33.004Z,15.00
2018-09-05T22:15:01.866Z,15.60
2018-09-05T22:17:30.546Z,17.50
2018-09-05T22:19:59.389Z,17.43
2018-09-05T22:22:28.117Z,17.60
2018-09-05T22:24:57.805Z,16.60
2018-09-05T22:27:26.428Z,17.07
2018-09-05T22:29:55.264Z,18.23
2018-09-05T22:32:24.172Z,18.03
2018-09-05T22:34:54.537Z,18.43
2018-09-05T22:37:23.942Z,18.93
2018-09-05T22:39:53.729Z,18.47
2018-09-05T22:42:24.482Z,16.40
2018-09-05T22:45:04.212Z,18.07
2018-09-05T22:49:47.716Z,18.07
2018-09-05T22:54:58.810Z,16.57
2018-09-05T22:57:49.104Z,15.13
2018-09-05T23:01:30.566Z,15.30
2018-09-05T23:04:10.607Z,14.33
2018-09-05T23:07:02.017Z,15.40
2018-09-05T23:09:41.766Z,17.10
2018-09-05T23:12:26.793Z,18.03
2018-09-05T23:15:10.660Z,16.57
2018-09-05T23:17:50.569Z,17.93
2018-09-05T23:20:30.969Z,17.73
2018-09-05T23:23:11.125Z,17.93
2018-09-05T23:25:39.954Z,14.90
2018-09-05T23:28:08.816Z,15.20
2018-09-05T23:30:37.663Z,15.53
2018-09-05T23:33:06.368Z,14.47
2018-09-05T23:35:35.133Z,14.73
2018-09-05T23:38:03.923Z,14.80
2018-09-05T23:40:32.607Z,14.30
2018-09-05T23:43:01.522Z,13.80
2018-09-05T23:45:30.222Z,13.20
2018-09-05T23:47:59.759Z,13.17
2018-09-05T23:50:29.037Z,13.50
2018-09-05T23:52:57.828Z,13.23
2018-09-05T23:55:26.629Z,14.27
2018-09-05T23:57:55.357Z,15.80
